Time;durP1;ratioP1;P1;durP2;ratioP2;P2;SDS_P1;SDS_P2;PMS_P1;PMS_P2;Temp;Humidity;BMP_temperature;BMP_pressure;BME280_temperature;BME280_humidity;BME280_pressure;Samples;Min_cycle;Max_cycle;Signal;HPM_P1;HPM_P2
2022/02/17 00:02:17;;;;;;;25.42;5.60;;;9.20;99.90;;;;;;5042119;28;20041;-66
2022/02/17 00:04:43;;;;;;;24.27;4.38;;;9.20;99.90;;;;;;5025467;28;20081;-65
2022/02/17 00:07:09;;;;;;;22.90;3.80;;;9.10;99.90;;;;;;5008092;28;20371;-66
2022/02/17 00:09:35;;;;;;;20.30;4.55;;;9.00;99.90;;;;;;5009126;28;20056;-65
2022/02/17 00:12:01;;;;;;;17.13;4.32;;;9.00;99.90;;;;;;5026159;28;20079;-65
2022/02/17 00:14:27;;;;;;;18.92;4.25;;;8.90;99.90;;;;;;5040201;28;20051;-66
2022/02/17 00:16:53;;;;;;;17.08;4.32;;;8.90;99.90;;;;;;5001838;28;20095;-65
2022/02/17 00:19:21;;;;;;;20.40;4.07;;;8.90;99.90;;;;;;5024292;28;20048;-65
2022/02/17 00:21:49;;;;;;;19.35;3.75;;;8.90;99.90;;;;;;5008580;28;20088;-66
2022/02/17 00:24:19;;;;;;;21.23;4.15;;;8.80;99.90;;;;;;5041543;28;20084;-65
2022/02/17 00:26:45;;;;;;;20.10;4.38;;;9.00;99.90;;;;;;5024099;28;20049;-66
2022/02/17 00:29:12;;;;;;;16.23;3.92;;;8.80;99.90;;;;;;5060100;28;20322;-66
2022/02/17 00:31:39;;;;;;;23.33;4.32;;;8.80;99.90;;;;;;5045956;28;20372;-66
2022/02/17 00:34:08;;;;;;;14.95;3.83;;;8.90;99.90;;;;;;5043913;28;20052;-65
2022/02/17 00:36:36;;;;;;;15.93;4.70;;;8.90;99.90;;;;;;5012425;28;20061;-66
2022/02/17 00:39:03;;;;;;;15.35;4.28;;;9.00;99.90;;;;;;5044896;28;20079;-65
2022/02/17 00:41:29;;;;;;;17.23;4.20;;;9.00;99.90;;;;;;5008780;28;20053;-65
2022/02/17 00:43:55;;;;;;;24.95;3.90;;;9.00;99.90;;;;;;5020936;28;20147;-66
2022/02/17 00:46:21;;;;;;;15.20;3.78;;;9.00;99.90;;;;;;5024784;28;20048;-65
2022/02/17 00:48:48;;;;;;;21.02;4.15;;;8.90;99.90;;;;;;5008069;28;20057;-65
2022/02/17 00:51:14;;;;;;;13.63;3.40;;;8.90;99.90;;;;;;5061880;28;20059;-65
2022/02/17 00:53:41;;;;;;;15.52;3.67;;;8.90;99.90;;;;;;5031495;28;20510;-65
2022/02/17 00:56:07;;;;;;;16.95;4.28;;;8.90;99.90;;;;;;5028973;28;20057;-66
2022/02/17 00:58:34;;;;;;;15.93;3.90;;;8.90;99.90;;;;;;5013300;28;20357;-65
2022/02/17 01:01:00;;;;;;;13.52;3.72;;;8.90;99.90;;;;;;5061788;28;20419;-65
2022/02/17 01:03:26;;;;;;;26.85;4.43;;;8.90;99.90;;;;;;5029408;28;20045;-65
2022/02/17 01:05:54;;;;;;;15.57;3.65;;;8.90;99.90;;;;;;5028881;28;20099;-65
2022/02/17 01:08:20;;;;;;;13.93;3.88;;;9.30;99.90;;;;;;5013394;28;20802;-66
2022/02/17 01:10:46;;;;;;;19.33;4.05;;;9.30;99.90;;;;;;5028068;28;20063;-65
2022/02/17 01:13:12;;;;;;;22.52;4.65;;;9.40;99.90;;;;;;5045188;28;20087;-65
2022/02/17 01:15:39;;;;;;;19.85;3.97;;;9.40;99.90;;;;;;5061712;28;20049;-65
2022/02/17 01:18:05;;;;;;;16.30;4.15;;;9.50;99.90;;;;;;5030051;28;20045;-65
2022/02/17 01:20:37;;;;;;;21.25;4.45;;;9.50;99.90;;;;;;5036082;28;20045;-65
2022/02/17 01:23:04;;;;;;;20.80;4.90;;;9.50;99.90;;;;;;5044693;28;20362;-65
2022/02/17 01:25:30;;;;;;;17.60;4.28;;;9.50;99.90;;;;;;5024754;28;20055;-64
2022/02/17 01:27:57;;;;;;;20.08;5.25;;;9.40;99.90;;;;;;5024617;28;20053;-64
2022/02/17 01:30:24;;;;;;;19.85;3.95;;;9.40;99.90;;;;;;4991918;28;20049;-63
2022/02/17 01:32:50;;;;;;;21.13;3.72;;;9.30;99.90;;;;;;4995776;28;20055;-63
2022/02/17 01:35:16;;;;;;;14.00;3.53;;;9.30;99.90;;;;;;5029386;28;20049;-64
2022/02/17 01:38:00;;;;;;;20.98;3.58;;;9.30;99.90;;;;;;5027969;28;20067;-64
2022/02/17 01:40:27;;;;;;;17.45;3.97;;;9.50;99.90;;;;;;5014550;28;20503;-64
2022/02/17 01:42:53;;;;;;;21.30;4.60;;;9.70;99.90;;;;;;5065837;28;20044;-65
2022/02/17 01:45:19;;;;;;;17.27;3.85;;;9.80;99.90;;;;;;5044861;28;20067;-65
2022/02/17 01:47:47;;;;;;;16.15;3.38;;;9.80;99.90;;;;;;5029089;28;20072;-64
2022/02/17 01:50:17;;;;;;;22.08;4.18;;;9.70;99.90;;;;;;5056329;28;20066;-65
2022/02/17 01:52:43;;;;;;;15.13;3.58;;;9.80;99.90;;;;;;5045595;28;20063;-65
2022/02/17 01:55:09;;;;;;;17.13;3.70;;;9.80;99.90;;;;;;5011852;28;20554;-65
2022/02/17 01:57:40;;;;;;;17.33;4.28;;;9.70;99.90;;;;;;5032829;28;20068;-68
2022/02/17 02:00:09;;;;;;;19.27;4.07;;;9.70;99.90;;;;;;5047893;28;20052;-68
2022/02/17 02:02:46;;;;;;;21.23;4.30;;;9.60;99.90;;;;;;5064095;28;20049;-69
2022/02/17 02:05:16;;;;;;;25.45;5.07;;;9.60;99.90;;;;;;5036155;28;20057;-65
2022/02/17 02:07:44;;;;;;;21.23;4.82;;;9.50;99.90;;;;;;5036543;28;20371;-68
2022/02/17 02:10:22;;;;;;;17.20;4.53;;;9.50;99.90;;;;;;5037122;28;20049;-65
2022/02/17 02:12:50;;;;;;;14.82;4.65;;;9.40;99.90;;;;;;4994949;28;20057;-68
2022/02/17 02:15:47;;;;;;;17.73;4.22;;;9.50;99.90;;;;;;4996311;28;20040;-64
2022/02/17 02:18:15;;;;;;;13.50;3.60;;;9.40;99.90;;;;;;5043054;28;20056;-64
2022/02/17 02:20:54;;;;;;;19.15;4.68;;;9.30;99.90;;;;;;5011053;28;20106;-65
2022/02/17 02:23:28;;;;;;;18.48;4.22;;;9.40;99.90;;;;;;5011272;28;20095;-64
2022/02/17 02:25:59;;;;;;;17.25;4.13;;;9.40;99.90;;;;;;5011313;28;20052;-64
2022/02/17 02:28:29;;;;;;;20.92;5.07;;;9.30;99.90;;;;;;5046449;28;20048;-65
2022/02/17 02:30:58;;;;;;;18.02;4.10;;;9.30;99.90;;;;;;5046253;28;20074;-65
2022/02/17 02:33:26;;;;;;;19.75;4.90;;;9.40;99.90;;;;;;4991255;28;20049;-64
2022/02/17 02:35:54;;;;;;;24.88;5.70;;;9.30;99.90;;;;;;5024204;28;20529;-65
2022/02/17 02:38:21;;;;;;;22.08;4.63;;;9.30;99.90;;;;;;5026986;28;20131;-65
2022/02/17 02:40:48;;;;;;;22.08;4.72;;;9.20;99.90;;;;;;5043060;28;20041;-68
2022/02/17 02:43:34;;;;;;;17.80;4.45;;;9.20;99.90;;;;;;5031813;28;20541;-64
2022/02/17 02:46:00;;;;;;;20.25;4.45;;;9.10;99.90;;;;;;5026918;28;20107;-68
2022/02/17 02:48:27;;;;;;;19.65;5.75;;;9.10;99.90;;;;;;5043944;28;20502;-67
2022/02/17 02:50:54;;;;;;;20.02;4.95;;;9.20;99.90;;;;;;5010264;28;20128;-64
2022/02/17 02:53:20;;;;;;;18.90;4.55;;;9.20;99.90;;;;;;5027137;28;20053;-64
2022/02/17 02:55:48;;;;;;;22.27;4.65;;;9.10;99.90;;;;;;5038472;28;20048;-67
2022/02/17 02:58:17;;;;;;;20.40;5.35;;;9.10;99.90;;;;;;5042709;28;20133;-67
2022/02/17 03:00:47;;;;;;;24.55;6.60;;;9.10;99.90;;;;;;5057427;28;20099;-68
2022/02/17 03:03:13;;;;;;;21.15;5.13;;;9.10;99.90;;;;;;5063216;28;20044;-65
2022/02/17 03:05:40;;;;;;;20.20;5.15;;;9.10;99.90;;;;;;5062303;28;20569;-65
2022/02/17 03:08:07;;;;;;;23.38;5.30;;;9.00;99.90;;;;;;5033460;28;20084;-65
2022/02/17 03:10:34;;;;;;;23.63;4.82;;;9.10;99.90;;;;;;5042747;28;20569;-65
2022/02/17 03:13:02;;;;;;;22.98;5.38;;;9.10;99.90;;;;;;5007467;28;20155;-64
2022/02/17 03:15:30;;;;;;;27.02;6.38;;;9.00;99.90;;;;;;5036582;28;20504;-65
2022/02/17 03:17:56;;;;;;;24.45;5.72;;;9.10;99.90;;;;;;5041577;28;20048;-68
2022/02/17 03:20:22;;;;;;;22.30;5.28;;;9.00;99.90;;;;;;5026154;28;20052;-68
2022/02/17 03:22:49;;;;;;;20.40;4.85;;;9.10;99.90;;;;;;5049056;28;21014;-69
2022/02/17 03:25:16;;;;;;;21.73;5.72;;;9.10;99.90;;;;;;5062242;28;20062;-68
2022/02/17 03:27:43;;;;;;;25.67;5.82;;;9.10;99.90;;;;;;5045128;28;20056;-68
2022/02/17 03:30:39;;;;;;;26.17;6.32;;;9.10;99.90;;;;;;5023289;28;20048;-68
2022/02/17 03:33:15;;;;;;;19.23;4.50;;;9.00;99.90;;;;;;5027158;28;20135;-68
2022/02/17 03:35:41;;;;;;;18.83;5.25;;;9.00;99.90;;;;;;5056716;28;20519;-67
2022/02/17 03:38:09;;;;;;;23.60;5.38;;;9.00;99.90;;;;;;5012580;28;20131;-68
2022/02/17 03:40:36;;;;;;;24.92;4.70;;;9.00;99.90;;;;;;5038802;28;20110;-68
2022/02/17 03:43:03;;;;;;;21.45;5.63;;;9.00;99.90;;;;;;5045435;28;20087;-68
2022/02/17 03:45:31;;;;;;;21.63;4.80;;;9.00;99.90;;;;;;5045248;28;20060;-67
2022/02/17 03:48:07;;;;;;;17.25;4.68;;;9.00;99.90;;;;;;5045282;28;20052;-68
2022/02/17 03:50:33;;;;;;;24.90;5.63;;;9.00;99.90;;;;;;4998527;28;20057;-68
2022/02/17 03:53:09;;;;;;;26.40;5.43;;;9.00;99.90;;;;;;5026328;28;20543;-64
2022/02/17 03:55:39;;;;;;;18.55;4.97;;;8.90;99.90;;;;;;5042377;28;20052;-65
2022/02/17 03:58:05;;;;;;;23.13;5.47;;;9.00;99.90;;;;;;5006066;28;20107;-65
2022/02/17 04:00:32;;;;;;;19.73;4.90;;;8.90;99.90;;;;;;5025386;28;20053;-64
2022/02/17 04:03:01;;;;;;;26.35;6.20;;;9.00;99.90;;;;;;5020791;28;20385;-64
2022/02/17 04:05:31;;;;;;;24.48;4.65;;;9.00;99.90;;;;;;5027205;28;20051;-64
2022/02/17 04:08:03;;;;;;;21.90;4.30;;;9.00;99.90;;;;;;5011235;28;20142;-64
2022/02/17 04:10:32;;;;;;;20.85;4.82;;;8.90;99.90;;;;;;5024807;28;21154;-66
2022/02/17 04:13:00;;;;;;;19.00;5.13;;;8.90;99.90;;;;;;5024926;28;20569;-65
2022/02/17 04:15:40;;;;;;;22.95;4.85;;;8.80;99.90;;;;;;5045427;28;20048;-65
2022/02/17 04:18:08;;;;;;;16.05;4.72;;;8.80;99.90;;;;;;5041575;28;20511;-64
2022/02/17 04:20:58;;;;;;;21.73;5.45;;;8.70;99.90;;;;;;5024308;28;20480;-65
2022/02/17 04:23:45;;;;;;;24.25;4.93;;;8.70;99.90;;;;;;5007844;28;20046;-64
2022/02/17 04:26:17;;;;;;;15.63;3.83;;;8.60;99.90;;;;;;5035333;28;20048;-64
2022/02/17 04:28:55;;;;;;;17.35;4.10;;;8.60;99.90;;;;;;5030547;28;20609;-66
2022/02/17 04:31:21;;;;;;;19.70;4.82;;;8.60;99.90;;;;;;5029601;28;20585;-68
2022/02/17 04:33:49;;;;;;;18.33;3.83;;;8.50;99.90;;;;;;5046137;28;20059;-68
2022/02/17 04:36:21;;;;;;;15.73;4.03;;;8.50;99.90;;;;;;5029870;28;20056;-68
2022/02/17 04:38:48;;;;;;;19.52;3.80;;;8.60;99.90;;;;;;5029809;28;20052;-67
2022/02/17 04:44:06;;;;;;;18.83;3.40;;;8.40;99.90;;;;;;5029945;28;20448;-68
2022/02/17 04:46:32;;;;;;;18.25;4.10;;;8.60;99.90;;;;;;5029199;28;20044;-68
2022/02/17 04:48:58;;;;;;;16.20;4.63;;;8.60;99.90;;;;;;5009958;28;20056;-67
2022/02/17 04:51:24;;;;;;;17.60;4.20;;;8.50;99.90;;;;;;5027473;28;20045;-64
2022/02/17 04:53:50;;;;;;;19.02;4.68;;;8.50;99.90;;;;;;5025799;28;20048;-64
2022/02/17 04:56:16;;;;;;;15.60;4.22;;;8.50;99.90;;;;;;5012073;28;20049;-64
2022/02/17 04:58:43;;;;;;;22.35;4.18;;;8.50;99.90;;;;;;5028875;28;20408;-64
2022/02/17 05:01:09;;;;;;;20.27;4.22;;;8.50;99.90;;;;;;5022010;28;20491;-64
2022/02/17 05:04:01;;;;;;;19.38;4.32;;;8.40;99.90;;;;;;5032426;28;20060;-64
2022/02/17 05:06:30;;;;;;;18.98;3.75;;;8.40;99.90;;;;;;5020961;28;20049;-65
2022/02/17 05:08:57;;;;;;;17.05;3.80;;;8.40;99.90;;;;;;5040608;28;20507;-67
2022/02/17 05:11:23;;;;;;;19.73;4.60;;;8.40;99.90;;;;;;5028462;28;20048;-67
2022/02/17 05:13:51;;;;;;;20.80;4.10;;;8.40;99.90;;;;;;5028078;28;20045;-64
2022/02/17 05:16:19;;;;;;;20.55;3.55;;;8.30;99.90;;;;;;5045215;28;20045;-64
2022/02/17 05:18:47;;;;;;;18.92;4.32;;;8.30;99.90;;;;;;5028224;28;20065;-64
2022/02/17 05:21:23;;;;;;;17.98;4.28;;;8.30;99.90;;;;;;5030232;28;20462;-63
2022/02/17 05:24:07;;;;;;;22.52;3.72;;;8.30;99.90;;;;;;5044371;28;20128;-64
2022/02/17 05:26:46;;;;;;;13.85;3.50;;;8.30;99.90;;;;;;5013359;28;20064;-63
2022/02/17 05:29:30;;;;;;;13.77;3.58;;;8.30;99.90;;;;;;5046794;28;20261;-64
2022/02/17 05:32:15;;;;;;;20.10;4.03;;;8.30;99.90;;;;;;5026517;28;20404;-64
2022/02/17 05:35:01;;;;;;;13.52;3.30;;;8.30;99.90;;;;;;5059001;28;20125;-64
2022/02/17 05:38:04;;;;;;;21.65;3.90;;;8.30;99.90;;;;;;5022770;28;20053;-64
2022/02/17 05:40:46;;;;;;;14.77;3.55;;;8.30;99.90;;;;;;5020748;28;20049;-63
2022/02/17 05:43:31;;;;;;;16.90;3.90;;;8.30;99.90;;;;;;5030971;28;20045;-64
2022/02/17 05:45:57;;;;;;;19.13;4.32;;;8.20;99.90;;;;;;5027728;28;20079;-64
2022/02/17 05:48:23;;;;;;;16.98;4.25;;;8.20;99.90;;;;;;5011260;28;20056;-63
2022/02/17 05:50:49;;;;;;;19.60;3.97;;;8.20;99.90;;;;;;5028089;28;20058;-64
2022/02/17 05:53:15;;;;;;;20.65;4.00;;;8.20;99.90;;;;;;5044460;28;20169;-64
2022/02/17 05:55:42;;;;;;;13.68;3.83;;;8.20;99.90;;;;;;5049033;28;20366;-63
2022/02/17 05:58:09;;;;;;;16.77;3.45;;;8.20;99.90;;;;;;5014878;28;20385;-63
2022/02/17 06:00:35;;;;;;;21.23;5.85;;;8.10;99.90;;;;;;5027075;28;20161;-63
2022/02/17 06:03:01;;;;;;;17.75;3.88;;;8.20;99.90;;;;;;5027484;28;20049;-64
2022/02/17 06:05:27;;;;;;;24.35;4.32;;;8.20;99.90;;;;;;5026828;28;20049;-67
2022/02/17 06:07:53;;;;;;;23.13;4.47;;;8.20;99.90;;;;;;5046153;28;20055;-68
2022/02/17 06:10:19;;;;;;;18.83;4.38;;;8.10;99.90;;;;;;5027106;28;20080;-67
2022/02/17 06:12:46;;;;;;;21.38;4.32;;;8.00;99.90;;;;;;5050416;28;20071;-67
2022/02/17 06:15:16;;;;;;;22.02;4.65;;;8.10;99.90;;;;;;5027117;28;20036;-67
2022/02/17 06:17:42;;;;;;;19.33;4.10;;;8.10;99.90;;;;;;5042279;28;20051;-67
2022/02/17 06:20:10;;;;;;;22.60;4.38;;;8.00;99.90;;;;;;5042495;28;20041;-68
2022/02/17 06:22:46;;;;;;;17.20;4.65;;;8.00;99.90;;;;;;5041537;28;20467;-67
2022/02/17 06:25:14;;;;;;;15.05;4.07;;;8.10;99.90;;;;;;5043779;28;20519;-68
2022/02/17 06:27:41;;;;;;;18.40;4.03;;;8.10;99.90;;;;;;5042907;28;20070;-67
2022/02/17 06:30:07;;;;;;;17.65;3.83;;;8.10;99.90;;;;;;5041566;28;20389;-64
2022/02/17 06:32:34;;;;;;;18.80;4.22;;;8.10;99.90;;;;;;5024286;28;20485;-64
2022/02/17 06:35:00;;;;;;;22.63;5.35;;;8.10;99.90;;;;;;5006766;28;20522;-64
2022/02/17 06:37:26;;;;;;;16.73;4.28;;;8.10;99.90;;;;;;5040059;28;20164;-63
2022/02/17 06:39:52;;;;;;;20.02;4.03;;;8.10;99.90;;;;;;5022063;28;20102;-64
2022/02/17 06:42:18;;;;;;;19.27;4.05;;;8.10;99.90;;;;;;5041485;28;20559;-64
2022/02/17 06:44:44;;;;;;;24.23;4.20;;;8.10;99.90;;;;;;5006849;28;20462;-63
2022/02/17 06:47:11;;;;;;;19.98;4.80;;;8.10;99.90;;;;;;5019940;28;20420;-64
2022/02/17 06:49:37;;;;;;;22.42;4.45;;;8.10;99.90;;;;;;4997443;28;20565;-64
2022/02/17 06:52:06;;;;;;;22.23;3.90;;;8.10;99.90;;;;;;5035918;28;20129;-64
2022/02/17 06:54:32;;;;;;;20.80;5.25;;;8.10;99.90;;;;;;5003177;28;20050;-63
2022/02/17 06:56:58;;;;;;;22.23;4.22;;;8.10;99.90;;;;;;5036671;28;20081;-63
2022/02/17 06:59:24;;;;;;;20.88;4.72;;;8.10;99.90;;;;;;5037151;28;20451;-63
2022/02/17 07:01:50;;;;;;;21.83;4.47;;;8.10;99.90;;;;;;5041382;28;20048;-63
2022/02/17 07:04:18;;;;;;;21.98;5.30;;;8.10;99.90;;;;;;5019932;28;21126;-63
2022/02/17 07:06:47;;;;;;;24.95;4.95;;;8.10;99.90;;;;;;5019082;28;20883;-63
2022/02/17 07:09:13;;;;;;;21.40;4.75;;;8.10;99.90;;;;;;5020338;28;20404;-64
2022/02/17 07:11:39;;;;;;;24.20;5.22;;;8.10;99.90;;;;;;5017395;28;20114;-63
2022/02/17 07:14:05;;;;;;;21.25;4.80;;;8.10;99.90;;;;;;5039080;28;20048;-63
2022/02/17 07:16:33;;;;;;;16.70;4.78;;;8.00;99.90;;;;;;5051575;28;20111;-63
2022/02/17 07:18:59;;;;;;;24.80;5.18;;;8.00;99.90;;;;;;5038746;28;20385;-64
2022/02/17 07:21:26;;;;;;;28.42;5.85;;;8.00;99.90;;;;;;5037636;28;20041;-63
2022/02/17 07:23:52;;;;;;;26.38;6.05;;;8.00;99.90;;;;;;5020275;28;20151;-63
2022/02/17 07:26:19;;;;;;;21.17;5.25;;;8.00;99.90;;;;;;5014692;28;20052;-63
2022/02/17 07:28:45;;;;;;;23.23;5.43;;;8.00;99.90;;;;;;5035971;28;20040;-63
2022/02/17 07:31:12;;;;;;;23.20;4.88;;;8.00;99.90;;;;;;5001852;28;20053;-64
2022/02/17 07:33:39;;;;;;;21.05;4.63;;;8.00;99.90;;;;;;5022847;28;20048;-64
2022/02/17 07:36:07;;;;;;;20.75;3.72;;;8.00;99.90;;;;;;4991824;28;20049;-63
2022/02/17 07:38:35;;;;;;;22.60;5.47;;;8.00;99.90;;;;;;5022716;28;20535;-63
2022/02/17 07:41:02;;;;;;;23.73;4.97;;;8.00;99.90;;;;;;5020937;28;20049;-63
2022/02/17 07:43:28;;;;;;;22.17;4.32;;;8.00;99.90;;;;;;5039115;28;20053;-64
2022/02/17 07:45:57;;;;;;;21.88;5.05;;;8.00;99.90;;;;;;4987924;28;20372;-61
2022/02/17 07:48:23;;;;;;;17.70;5.15;;;8.00;99.90;;;;;;5021746;28;20048;-68
2022/02/17 07:50:49;;;;;;;23.10;4.50;;;8.00;99.90;;;;;;5004274;28;20045;-67
2022/02/17 07:53:15;;;;;;;17.83;4.07;;;7.90;99.90;;;;;;5023575;28;20362;-68
2022/02/17 07:55:42;;;;;;;23.90;5.30;;;8.00;99.90;;;;;;5022528;28;20045;-68
2022/02/17 07:58:14;;;;;;;20.90;5.18;;;7.90;99.90;;;;;;5022880;28;20036;-68
2022/02/17 08:00:41;;;;;;;;;;;7.90;99.90;;;;;;5005790;28;20080;-67
2022/02/17 08:03:08;;;;;;;19.85;5.05;;;7.90;99.90;;;;;;5041603;28;19989;-68
2022/02/17 08:05:38;;;;;;;19.02;4.40;;;7.90;99.90;;;;;;5008665;28;20163;-68
2022/02/17 08:08:06;;;;;;;22.58;4.88;;;7.90;99.90;;;;;;5025125;28;20041;-68
2022/02/17 08:10:32;;;;;;;18.70;5.10;;;7.90;99.90;;;;;;5037886;28;20054;-67
2022/02/17 08:12:58;;;;;;;19.40;4.50;;;7.90;99.90;;;;;;5039683;28;20079;-68
2022/02/17 08:15:25;;;;;;;21.27;5.35;;;7.90;99.90;;;;;;5040126;28;20037;-68
2022/02/17 08:17:51;;;;;;;19.45;5.15;;;7.90;99.90;;;;;;5023088;28;20103;-67
2022/02/17 08:20:17;;;;;;;23.90;5.20;;;7.90;99.90;;;;;;5022116;28;20051;-68
2022/02/17 08:22:50;;;;;;;19.25;4.45;;;7.90;99.90;;;;;;5021847;28;20512;-67
2022/02/17 08:25:17;;;;;;;21.08;4.65;;;7.90;99.90;;;;;;5005721;28;20079;-69
2022/02/17 08:27:44;;;;;;;23.52;6.00;;;7.90;99.90;;;;;;5005896;28;20068;-70
2022/02/17 08:30:11;;;;;;;18.38;4.13;;;8.00;99.90;;;;;;5040586;28;20080;-70
2022/02/17 08:32:38;;;;;;;17.83;4.15;;;7.90;99.90;;;;;;5023180;28;20053;-64
2022/02/17 08:35:06;;;;;;;18.10;4.60;;;8.00;99.90;;;;;;5039963;28;20088;-72
2022/02/17 08:37:38;;;;;;;21.70;4.80;;;8.00;99.90;;;;;;5039254;28;20053;-71
2022/02/17 08:40:06;;;;;;;20.10;4.55;;;8.00;99.90;;;;;;5037524;28;20136;-71
2022/02/17 08:42:33;;;;;;;19.90;5.10;;;8.00;99.90;;;;;;5019095;28;20094;-71
2022/02/17 08:44:59;;;;;;;18.92;5.10;;;8.00;99.90;;;;;;5037732;28;20048;-71
2022/02/17 08:47:25;;;;;;;18.42;4.18;;;7.90;99.90;;;;;;5005702;28;20045;-70
2022/02/17 08:49:51;;;;;;;18.60;4.57;;;7.90;99.90;;;;;;5021717;28;20500;-71
2022/02/17 08:52:21;;;;;;;21.88;5.75;;;8.00;99.90;;;;;;5040301;28;20052;-71
2022/02/17 08:54:50;;;;;;;22.52;4.35;;;7.90;99.90;;;;;;5023448;28;20136;-71
2022/02/17 08:57:17;;;;;;;19.98;4.05;;;8.00;99.90;;;;;;5022640;28;20447;-71
2022/02/17 08:59:44;;;;;;;19.77;4.00;;;8.00;99.90;;;;;;5023378;28;20057;-70
2022/02/17 09:02:10;;;;;;;19.52;4.30;;;8.00;99.90;;;;;;5025243;28;20111;-70
2022/02/17 09:04:38;;;;;;;20.08;3.50;;;8.00;99.90;;;;;;5020102;28;20471;-70
2022/02/17 09:07:05;;;;;;;18.13;4.20;;;8.00;99.90;;;;;;5005481;28;20052;-69
2022/02/17 09:09:31;;;;;;;21.17;4.47;;;8.10;99.90;;;;;;5042061;28;20045;-71
2022/02/17 09:11:57;;;;;;;16.38;5.68;;;8.10;99.90;;;;;;5038925;28;20649;-71
2022/02/17 09:14:23;;;;;;;19.60;4.40;;;8.10;99.90;;;;;;5026907;28;20342;-70
2022/02/17 09:16:52;;;;;;;22.15;4.50;;;8.00;99.90;;;;;;5041222;28;20044;-70
2022/02/17 09:19:19;;;;;;;15.95;4.15;;;8.10;99.90;;;;;;5027704;28;20056;-71
2022/02/17 09:21:45;;;;;;;18.65;4.30;;;8.10;99.90;;;;;;5010185;28;20396;-71
2022/02/17 09:24:11;;;;;;;19.58;4.88;;;8.10;99.90;;;;;;5037339;28;20056;-72
2022/02/17 09:26:37;;;;;;;22.67;4.53;;;8.10;99.90;;;;;;5049846;28;20044;-71
2022/02/17 09:29:06;;;;;;;22.55;4.35;;;8.20;99.90;;;;;;5022465;28;20052;-71
2022/02/17 09:31:32;;;;;;;18.73;3.83;;;8.20;99.90;;;;;;5006310;28;20041;-71
2022/02/17 09:33:58;;;;;;;21.75;4.32;;;8.20;99.90;;;;;;5033337;28;20057;-71
2022/02/17 09:36:26;;;;;;;17.23;4.03;;;8.20;99.90;;;;;;5020247;28;20574;-71
2022/02/17 09:38:56;;;;;;;19.08;5.03;;;8.30;99.90;;;;;;5022589;28;20115;-71
2022/02/17 09:41:24;;;;;;;17.77;4.35;;;8.30;99.90;;;;;;5032957;28;20063;-71
2022/02/17 09:43:52;;;;;;;21.95;5.00;;;8.30;99.90;;;;;;5021657;28;20091;-72
2022/02/17 09:46:23;;;;;;;23.58;4.15;;;8.30;99.90;;;;;;5019120;28;20336;-72
2022/02/17 09:48:55;;;;;;;24.77;4.38;;;8.40;99.90;;;;;;5035555;28;20666;-72
2022/02/17 09:51:23;;;;;;;20.92;3.67;;;8.50;99.90;;;;;;5020355;28;20440;-72
2022/02/17 09:53:50;;;;;;;16.92;4.13;;;8.40;99.90;;;;;;5036280;28;20041;-72
2022/02/17 09:56:22;;;;;;;15.18;3.90;;;8.50;99.90;;;;;;5037972;28;20064;-72
2022/02/17 09:58:49;;;;;;;;;;;8.40;99.90;;;;;;5039002;28;20049;-72
2022/02/17 10:01:27;;;;;;;17.98;3.63;;;8.50;99.90;;;;;;5036477;28;19917;-71
2022/02/17 10:04:16;;;;;;;15.98;4.05;;;8.50;99.90;;;;;;5037844;28;20665;-71
2022/02/17 10:06:57;;;;;;;15.15;3.97;;;8.50;99.90;;;;;;5039612;28;20543;-71
2022/02/17 10:09:34;;;;;;;16.00;3.70;;;8.50;99.90;;;;;;5039380;28;20061;-72
2022/02/17 10:12:01;;;;;;;19.65;4.20;;;8.60;99.90;;;;;;5036798;28;20522;-72
2022/02/17 10:14:27;;;;;;;21.60;4.47;;;8.60;99.90;;;;;;5038718;28;20641;-71
2022/02/17 10:16:59;;;;;;;19.20;3.63;;;8.60;99.90;;;;;;5004910;28;20048;-71
2022/02/17 10:19:27;;;;;;;23.42;4.60;;;8.90;99.90;;;;;;5020091;28;20393;-72
2022/02/17 10:22:11;;;;;;;19.05;4.32;;;9.20;99.90;;;;;;5036459;28;20096;-72
2022/02/17 10:24:45;;;;;;;21.08;3.58;;;9.40;99.90;;;;;;5034934;28;20143;-71
2022/02/17 10:27:22;;;;;;;19.13;4.22;;;9.70;99.90;;;;;;5027020;28;20113;-72
2022/02/17 10:30:07;;;;;;;19.83;4.85;;;9.70;99.90;;;;;;5060126;28;20060;-69
2022/02/17 10:32:34;;;;;;;16.15;3.85;;;9.50;99.90;;;;;;5034961;28;20072;-69
2022/02/17 10:35:08;;;;;;;17.70;3.97;;;9.50;99.90;;;;;;5040558;28;20084;-62
2022/02/17 10:37:59;;;;;;;18.20;3.92;;;9.50;99.90;;;;;;5039503;28;20053;-69
2022/02/17 10:40:30;;;;;;;14.52;3.38;;;9.50;99.90;;;;;;5032746;28;20048;-69
2022/02/17 10:43:05;;;;;;;19.88;4.03;;;9.70;99.90;;;;;;5020803;28;20040;-62
2022/02/17 10:45:32;;;;;;;23.60;4.18;;;9.60;99.90;;;;;;5025415;28;20053;-69
2022/02/17 10:48:20;;;;;;;17.52;4.45;;;9.50;99.90;;;;;;5040266;28;20571;-69
2022/02/17 10:51:04;;;;;;;18.15;4.47;;;9.80;99.90;;;;;;5038815;28;20127;-69
2022/02/17 10:53:31;;;;;;;17.88;3.83;;;10.40;99.90;;;;;;5038447;28;20048;-69
2022/02/17 10:56:00;;;;;;;16.15;3.83;;;10.90;99.90;;;;;;5040265;28;20055;-69
2022/02/17 10:58:31;;;;;;;15.40;3.65;;;11.20;99.90;;;;;;5036718;28;20109;-70
2022/02/17 11:01:03;;;;;;;18.47;3.63;;;11.10;99.90;;;;;;5025012;28;20045;-69
2022/02/17 11:03:32;;;;;;;15.27;3.38;;;10.90;99.90;;;;;;5035827;28;20307;-68
2022/02/17 11:05:59;;;;;;;15.98;4.18;;;10.90;99.90;;;;;;5036960;28;20148;-62
2022/02/17 11:08:26;;;;;;;13.68;3.30;;;11.30;99.90;;;;;;5021051;28;20156;-62
2022/02/17 11:10:52;;;;;;;19.83;3.72;;;10.90;99.90;;;;;;5041564;28;20041;-62
2022/02/17 11:13:19;;;;;;;15.88;3.30;;;10.90;99.90;;;;;;5039853;28;20127;-62
2022/02/17 11:15:48;;;;;;;15.75;3.33;;;10.60;99.90;;;;;;5036480;28;20045;-63
2022/02/17 11:18:16;;;;;;;11.35;2.35;;;10.30;99.90;;;;;;5040770;28;20595;-62
2022/02/17 11:20:44;;;;;;;15.30;3.50;;;10.30;99.90;;;;;;5040742;28;20044;-62
2022/02/17 11:23:10;;;;;;;10.40;2.70;;;10.90;99.90;;;;;;5039690;28;20040;-62
2022/02/17 11:25:41;;;;;;;12.45;3.33;;;11.30;99.90;;;;;;5037593;28;20051;-62
2022/02/17 11:28:09;;;;;;;10.32;3.00;;;11.30;93.60;;;;;;5038692;28;20060;-62
2022/02/17 11:30:37;;;;;;;14.82;4.15;;;11.80;99.90;;;;;;5038325;28;20053;-62
2022/02/17 11:33:22;;;;;;;13.05;2.92;;;12.30;92.30;;;;;;5027300;28;20041;-62
2022/02/17 11:35:59;;;;;;;16.77;3.75;;;11.90;80.40;;;;;;5038083;28;20053;-62
2022/02/17 11:38:29;;;;;;;12.52;3.05;;;12.30;83.70;;;;;;5038409;28;20056;-62
2022/02/17 11:41:06;;;;;;;15.02;3.00;;;12.30;81.20;;;;;;5023063;28;20048;-62
2022/02/17 11:43:34;;;;;;;13.88;3.13;;;12.20;66.50;;;;;;5040121;28;20044;-62
2022/02/17 11:46:00;;;;;;;13.00;3.35;;;12.90;69.50;;;;;;5043445;28;20063;-62
2022/02/17 11:48:42;;;;;;;13.65;3.30;;;12.70;72.80;;;;;;5035060;28;20160;-63
2022/02/17 11:51:11;;;;;;;;;;;12.50;72.70;;;;;;5005543;28;20080;-62
2022/02/17 11:53:40;;;;;;;17.05;3.65;;;12.70;67.70;;;;;;5040491;28;20007;-62
2022/02/17 11:56:09;;;;;;;14.50;3.38;;;12.30;68.10;;;;;;5040825;28;20052;-62
2022/02/17 11:58:44;;;;;;;14.48;3.50;;;12.30;73.90;;;;;;5049019;28;20064;-63
2022/02/17 12:01:25;;;;;;;13.45;3.25;;;11.70;71.40;;;;;;5036432;28;20583;-63
2022/02/17 12:03:58;;;;;;;9.37;2.63;;;11.90;79.30;;;;;;5018239;28;20367;-62
2022/02/17 12:06:45;;;;;;;11.93;3.42;;;12.00;81.10;;;;;;5037964;28;20310;-62
2022/02/17 12:09:32;;;;;;;11.57;2.70;;;12.50;78.10;;;;;;5049260;28;20048;-62
2022/02/17 12:12:24;;;;;;;17.52;3.47;;;12.00;71.80;;;;;;5036539;28;20063;-62
2022/02/17 12:14:52;;;;;;;13.57;3.38;;;11.50;84.70;;;;;;5034427;28;20049;-62
2022/02/17 12:17:28;;;;;;;12.20;3.25;;;11.20;93.10;;;;;;5040742;28;20044;-62
2022/02/17 12:20:10;;;;;;;15.18;3.03;;;11.50;87.90;;;;;;5038922;28;20067;-62
2022/02/17 12:22:37;;;;;;;12.35;2.95;;;11.20;95.10;;;;;;5040531;28;20072;-68
2022/02/17 12:25:20;;;;;;;10.02;2.30;;;10.80;96.40;;;;;;5030854;28;20052;-67
2022/02/17 12:27:56;;;;;;;14.85;3.35;;;10.50;98.00;;;;;;5042136;28;20476;-68
2022/02/17 12:30:30;;;;;;;13.10;2.83;;;11.00;99.90;;;;;;5049626;28;20059;-67
2022/02/17 12:33:05;;;;;;;14.57;2.85;;;11.10;93.40;;;;;;5040448;28;20047;-67
2022/02/17 12:35:32;;;;;;;11.38;2.38;;;10.90;96.10;;;;;;5033909;28;20088;-68
2022/02/17 12:38:10;;;;;;;14.82;3.33;;;10.80;99.90;;;;;;5004726;28;20065;-68
2022/02/17 12:40:38;;;;;;;11.85;2.50;;;10.60;99.90;;;;;;5036562;28;20389;-67
2022/02/17 12:43:05;;;;;;;9.07;2.20;;;10.10;99.90;;;;;;5037095;28;20825;-67
2022/02/17 12:45:39;;;;;;;13.45;3.20;;;10.00;99.90;;;;;;5023471;28;20130;-68
2022/02/17 12:48:07;;;;;;;13.07;2.30;;;9.80;99.90;;;;;;5041961;28;20053;-67
2022/02/17 12:50:35;;;;;;;16.02;2.65;;;9.70;99.90;;;;;;5042033;28;20055;-67
2022/02/17 12:53:05;;;;;;;12.65;3.03;;;9.90;99.90;;;;;;5024960;28;20436;-66
2022/02/17 12:55:44;;;;;;;16.10;2.72;;;10.00;99.90;;;;;;5040073;28;20045;-69
2022/02/17 12:58:12;;;;;;;12.77;3.42;;;10.00;99.90;;;;;;5043151;28;20048;-68
2022/02/17 13:00:39;;;;;;;12.05;2.60;;;10.00;99.90;;;;;;5026742;28;20044;-68
2022/02/17 13:03:06;;;;;;;17.42;2.97;;;10.10;99.90;;;;;;5041344;28;20488;-70